sensor_id;sensor_type;location;lat;lon;timestamp;temperature;humidity
2825;DHT22;1420;51.324;12.344;2022-07-21T09:59:55;23.70;99.90
2825;DHT22;1420;51.324;12.344;2022-07-21T10:02:23;23.70;99.90
2825;DHT22;1420;51.324;12.344;2022-07-21T10:05:22;23.80;99.90
2825;DHT22;1420;51.324;12.344;2022-07-21T10:07:35;24.10;99.90
2825;DHT22;1420;51.324;12.344;2022-07-21T10:10:00;24.40;99.90
2825;DHT22;1420;51.324;12.344;2022-07-21T10:12:28;24.50;99.90
2825;DHT22;1420;51.324;12.344;2022-07-21T10:14:56;24.60;99.90
2825;DHT22;1420;51.324;12.344;2022-07-21T10:17:24;24.60;99.90
2825;DHT22;1420;51.324;12.344;2022-07-21T10:20:21;24.80;99.90
2825;DHT22;1420;51.324;12.344;2022-07-21T10:22:54;24.80;99.90
2825;DHT22;1420;51.324;12.344;2022-07-21T10:25:16;25.00;99.90
2825;DHT22;1420;51.324;12.344;2022-07-21T10:30:36;25.40;99.90
2825;DHT22;1420;51.324;12.344;2022-07-21T10:32:50;25.70;99.90
2825;DHT22;1420;51.324;12.344;2022-07-21T10:35:34;25.80;99.90
2825;DHT22;1420;51.324;12.344;2022-07-21T10:38:02;25.80;99.90
2825;DHT22;1420;51.324;12.344;2022-07-21T10:40:37;26.00;99.90
2825;DHT22;1420;51.324;12.344;2022-07-21T10:43:37;26.00;99.90
2825;DHT22;1420;51.324;12.344;2022-07-21T10:46:04;26.30;99.90
2825;DHT22;1420;51.324;12.344;2022-07-21T10:48:52;26.80;99.90
2825;DHT22;1420;51.324;12.344;2022-07-21T10:51:19;27.60;99.90
2825;DHT22;1420;51.324;12.344;2022-07-21T10:53:46;28.10;99.90
2825;DHT22;1420;51.324;12.344;2022-07-21T10:56:25;28.20;99.90
2825;DHT22;1420;51.324;12.344;2022-07-21T10:58:52;28.40;99.90
2825;DHT22;1420;51.324;12.344;2022-07-21T11:01:21;28.40;99.90
2825;DHT22;1420;51.324;12.344;2022-07-21T11:04:07;27.80;99.90
2825;DHT22;1420;51.324;12.344;2022-07-21T11:06:19;28.40;99.90
2825;DHT22;1420;51.324;12.344;2022-07-21T11:08:52;28.60;99.90
2825;DHT22;1420;51.324;12.344;2022-07-21T11:11:20;28.60;99.90
2825;DHT22;1420;51.324;12.344;2022-07-21T11:16:56;28.70;99.90
2825;DHT22;1420;51.324;12.344;2022-07-21T11:19:35;28.80;99.90
2825;DHT22;1420;51.324;12.344;2022-07-21T11:22:03;28.80;99.90
2825;DHT22;1420;51.324;12.344;2022-07-21T11:24:28;29.10;99.90
2825;DHT22;1420;51.324;12.344;2022-07-21T11:26:59;29.50;99.90
2825;DHT22;1420;51.324;12.344;2022-07-21T11:29:25;29.90;99.90
2825;DHT22;1420;51.324;12.344;2022-07-21T11:31:52;29.80;99.90
2825;DHT22;1420;51.324;12.344;2022-07-21T11:34:19;29.60;99.90
2825;DHT22;1420;51.324;12.344;2022-07-21T11:36:46;29.70;99.90
2825;DHT22;1420;51.324;12.344;2022-07-21T11:39:14;29.50;99.90
2825;DHT22;1420;51.324;12.344;2022-07-21T11:41:41;29.30;99.90
2825;DHT22;1420;51.324;12.344;2022-07-21T11:44:09;28.90;99.90
2825;DHT22;1420;51.324;12.344;2022-07-21T11:46:44;28.70;99.90
2825;DHT22;1420;51.324;12.344;2022-07-21T11:49:10;28.80;99.90
2825;DHT22;1420;51.324;12.344;2022-07-21T11:51:38;28.70;99.90
2825;DHT22;1420;51.324;12.344;2022-07-21T11:54:05;28.80;99.90
2825;DHT22;1420;51.324;12.344;2022-07-21T11:56:37;28.90;99.90
2825;DHT22;1420;51.324;12.344;2022-07-21T11:59:09;29.20;99.90
2825;DHT22;1420;51.324;12.344;2022-07-21T12:04:28;28.00;99.90
2825;DHT22;1420;51.324;12.344;2022-07-21T12:06:55;28.60;99.90
2825;DHT22;1420;51.324;12.344;2022-07-21T12:09:23;28.70;99.90
2825;DHT22;1420;51.324;12.344;2022-07-21T12:11:50;28.70;99.90
2825;DHT22;1420;51.324;12.344;2022-07-21T12:14:17;28.70;99.90
2825;DHT22;1420;51.324;12.344;2022-07-21T12:16:48;28.70;99.90
2825;DHT22;1420;51.324;12.344;2022-07-21T12:19:15;28.50;99.90
2825;DHT22;1420;51.324;12.344;2022-07-21T12:21:44;28.20;99.90
2825;DHT22;1420;51.324;12.344;2022-07-21T12:24:11;28.10;99.90
2825;DHT22;1420;51.324;12.344;2022-07-21T12:26:39;28.30;99.90
2825;DHT22;1420;51.324;12.344;2022-07-21T12:29:06;28.30;99.90
2825;DHT22;1420;51.324;12.344;2022-07-21T12:31:34;28.40;99.90
2825;DHT22;1420;51.324;12.344;2022-07-21T12:34:10;28.20;99.90
2825;DHT22;1420;51.324;12.344;2022-07-21T12:36:27;27.90;99.90
2825;DHT22;1420;51.324;12.344;2022-07-21T12:38:55;28.20;99.90
2825;DHT22;1420;51.324;12.344;2022-07-21T12:41:23;28.70;99.90
2825;DHT22;1420;51.324;12.344;2022-07-21T12:43:56;29.20;99.90
2825;DHT22;1420;51.324;12.344;2022-07-21T12:46:27;29.20;99.90
2825;DHT22;1420;51.324;12.344;2022-07-21T12:48:48;29.60;99.90
2825;DHT22;1420;51.324;12.344;2022-07-21T12:51:22;29.60;99.90
2825;DHT22;1420;51.324;12.344;2022-07-21T12:53:50;29.80;99.90
2825;DHT22;1420;51.324;12.344;2022-07-21T12:56:19;30.10;99.90
2825;DHT22;1420;51.324;12.344;2022-07-21T12:58:45;30.30;99.90
2825;DHT22;1420;51.324;12.344;2022-07-21T13:01:13;29.30;99.90
2825;DHT22;1420;51.324;12.344;2022-07-21T13:03:41;29.20;99.90
2825;DHT22;1420;51.324;12.344;2022-07-21T13:06:09;29.50;99.90
2825;DHT22;1420;51.324;12.344;2022-07-21T13:08:37;29.60;99.90
2825;DHT22;1420;51.324;12.344;2022-07-21T13:11:04;29.50;99.90
2825;DHT22;1420;51.324;12.344;2022-07-21T13:13:31;29.40;99.90
2825;DHT22;1420;51.324;12.344;2022-07-21T13:15:58;29.10;99.90
2825;DHT22;1420;51.324;12.344;2022-07-21T13:18:25;29.10;99.90
2825;DHT22;1420;51.324;12.344;2022-07-21T13:20:53;29.00;99.90
2825;DHT22;1420;51.324;12.344;2022-07-21T13:23:21;28.30;99.90
2825;DHT22;1420;51.324;12.344;2022-07-21T13:25:49;28.20;99.90
2825;DHT22;1420;51.324;12.344;2022-07-21T13:28:16;28.30;99.90
2825;DHT22;1420;51.324;12.344;2022-07-21T13:30:45;28.20;99.90
2825;DHT22;1420;51.324;12.344;2022-07-21T13:33:12;28.40;99.90
2825;DHT22;1420;51.324;12.344;2022-07-21T13:35:39;28.50;99.90
2825;DHT22;1420;51.324;12.344;2022-07-21T13:38:06;28.50;99.90
2825;DHT22;1420;51.324;12.344;2022-07-21T13:40:33;28.30;99.90
2825;DHT22;1420;51.324;12.344;2022-07-21T13:43:01;28.30;99.90
2825;DHT22;1420;51.324;12.344;2022-07-21T13:45:28;28.40;99.90
2825;DHT22;1420;51.324;12.344;2022-07-21T13:47:55;28.50;99.90
2825;DHT22;1420;51.324;12.344;2022-07-21T13:50:23;28.50;99.90
2825;DHT22;1420;51.324;12.344;2022-07-21T13:52:51;29.00;99.90
2825;DHT22;1420;51.324;12.344;2022-07-21T13:55:18;28.90;99.90
2825;DHT22;1420;51.324;12.344;2022-07-21T13:57:45;29.20;99.90
2825;DHT22;1420;51.324;12.344;2022-07-21T14:00:12;28.50;99.90
2825;DHT22;1420;51.324;12.344;2022-07-21T14:02:40;28.40;99.90
2825;DHT22;1420;51.324;12.344;2022-07-21T14:05:07;28.50;99.90
2825;DHT22;1420;51.324;12.344;2022-07-21T14:07:35;28.80;99.90
2825;DHT22;1420;51.324;12.344;2022-07-21T14:10:03;28.80;99.90
2825;DHT22;1420;51.324;12.344;2022-07-21T14:12:29;28.80;99.90
2825;DHT22;1420;51.324;12.344;2022-07-21T14:14:57;28.80;99.90
2825;DHT22;1420;51.324;12.344;2022-07-21T14:17:25;29.40;99.90
2825;DHT22;1420;51.324;12.344;2022-07-21T14:19:53;29.80;99.90
2825;DHT22;1420;51.324;12.344;2022-07-21T14:22:21;29.70;99.90
2825;DHT22;1420;51.324;12.344;2022-07-21T14:24:49;29.80;99.90
2825;DHT22;1420;51.324;12.344;2022-07-21T14:27:22;29.70;99.90
2825;DHT22;1420;51.324;12.344;2022-07-21T14:29:50;30.20;99.90
2825;DHT22;1420;51.324;12.344;2022-07-21T14:32:18;30.20;99.90
2825;DHT22;1420;51.324;12.344;2022-07-21T14:34:44;30.40;99.90
2825;DHT22;1420;51.324;12.344;2022-07-21T14:37:12;30.40;99.90
2825;DHT22;1420;51.324;12.344;2022-07-21T14:39:39;30.70;99.90
2825;DHT22;1420;51.324;12.344;2022-07-21T14:42:06;30.70;99.90
2825;DHT22;1420;51.324;12.344;2022-07-21T14:44:34;30.60;99.90
2825;DHT22;1420;51.324;12.344;2022-07-21T14:47:01;30.60;99.90
2825;DHT22;1420;51.324;12.344;2022-07-21T14:49:28;30.30;99.90
2825;DHT22;1420;51.324;12.344;2022-07-21T14:51:56;30.30;99.90
2825;DHT22;1420;51.324;12.344;2022-07-21T14:54:23;30.20;99.90
2825;DHT22;1420;51.324;12.344;2022-07-21T14:56:50;30.30;99.90
2825;DHT22;1420;51.324;12.344;2022-07-21T14:59:17;30.40;99.90
2825;DHT22;1420;51.324;12.344;2022-07-21T15:01:44;30.60;99.90
2825;DHT22;1420;51.324;12.344;2022-07-21T15:04:12;30.60;99.90
2825;DHT22;1420;51.324;12.344;2022-07-21T15:06:39;30.60;99.90
2825;DHT22;1420;51.324;12.344;2022-07-21T15:09:07;30.60;99.90
2825;DHT22;1420;51.324;12.344;2022-07-21T15:11:35;30.50;99.90
2825;DHT22;1420;51.324;12.344;2022-07-21T15:14:03;30.50;99.90
2825;DHT22;1420;51.324;12.344;2022-07-21T15:16:31;30.30;99.90
2825;DHT22;1420;51.324;12.344;2022-07-21T15:18:59;30.30;99.90
2825;DHT22;1420;51.324;12.344;2022-07-21T15:21:27;30.10;99.90
2825;DHT22;1420;51.324;12.344;2022-07-21T15:23:55;30.10;99.90
2825;DHT22;1420;51.324;12.344;2022-07-21T15:26:23;30.20;99.90
2825;DHT22;1420;51.324;12.344;2022-07-21T15:28:51;29.90;99.90
2825;DHT22;1420;51.324;12.344;2022-07-21T15:31:19;29.70;99.90
2825;DHT22;1420;51.324;12.344;2022-07-21T15:33:47;29.90;99.90
2825;DHT22;1420;51.324;12.344;2022-07-21T15:36:14;29.90;99.90
2825;DHT22;1420;51.324;12.344;2022-07-21T15:38:41;30.20;99.90
2825;DHT22;1420;51.324;12.344;2022-07-21T15:41:08;30.10;99.90
2825;DHT22;1420;51.324;12.344;2022-07-21T15:43:36;29.90;99.90
2825;DHT22;1420;51.324;12.344;2022-07-21T15:46:04;29.80;99.90
2825;DHT22;1420;51.324;12.344;2022-07-21T15:48:31;29.70;99.90
2825;DHT22;1420;51.324;12.344;2022-07-21T15:50:59;29.60;99.90
2825;DHT22;1420;51.324;12.344;2022-07-21T15:53:26;29.60;99.90
2825;DHT22;1420;51.324;12.344;2022-07-21T15:55:53;29.50;99.90
2825;DHT22;1420;51.324;12.344;2022-07-21T15:58:20;29.80;99.90
2825;DHT22;1420;51.324;12.344;2022-07-21T16:00:47;29.90;99.90
2825;DHT22;1420;51.324;12.344;2022-07-21T16:03:15;30.10;99.90
2825;DHT22;1420;51.324;12.344;2022-07-21T16:05:42;30.00;99.90
2825;DHT22;1420;51.324;12.344;2022-07-21T16:08:09;30.10;99.90
2825;DHT22;1420;51.324;12.344;2022-07-21T16:10:36;30.20;99.90
2825;DHT22;1420;51.324;12.344;2022-07-21T16:13:04;30.40;99.90
2825;DHT22;1420;51.324;12.344;2022-07-21T16:15:31;30.50;99.90
2825;DHT22;1420;51.324;12.344;2022-07-21T16:17:58;30.60;99.90
2825;DHT22;1420;51.324;12.344;2022-07-21T16:20:25;30.50;99.90
2825;DHT22;1420;51.324;12.344;2022-07-21T16:22:53;30.40;99.90
2825;DHT22;1420;51.324;12.344;2022-07-21T16:25:20;30.40;99.90
2825;DHT22;1420;51.324;12.344;2022-07-21T16:27:47;30.30;99.90
2825;DHT22;1420;51.324;12.344;2022-07-21T16:30:15;29.80;99.90
2825;DHT22;1420;51.324;12.344;2022-07-21T16:32:44;29.70;99.90
2825;DHT22;1420;51.324;12.344;2022-07-21T16:35:11;29.60;99.90
2825;DHT22;1420;51.324;12.344;2022-07-21T16:37:40;29.60;99.90
2825;DHT22;1420;51.324;12.344;2022-07-21T16:40:08;29.20;99.90
2825;DHT22;1420;51.324;12.344;2022-07-21T16:42:36;29.00;99.90
2825;DHT22;1420;51.324;12.344;2022-07-21T16:45:05;28.90;99.90
2825;DHT22;1420;51.324;12.344;2022-07-21T16:47:32;28.90;99.90
2825;DHT22;1420;51.324;12.344;2022-07-21T16:49:59;28.80;99.90
2825;DHT22;1420;51.324;12.344;2022-07-21T16:52:26;29.00;99.90
2825;DHT22;1420;51.324;12.344;2022-07-21T16:54:54;28.90;99.90
2825;DHT22;1420;51.324;12.344;2022-07-21T16:57:21;29.00;99.90
2825;DHT22;1420;51.324;12.344;2022-07-21T16:59:48;28.80;99.90
2825;DHT22;1420;51.324;12.344;2022-07-21T17:02:15;28.80;99.90
2825;DHT22;1420;51.324;12.344;2022-07-21T17:04:43;28.80;99.90
2825;DHT22;1420;51.324;12.344;2022-07-21T17:07:11;28.90;99.90
2825;DHT22;1420;51.324;12.344;2022-07-21T17:09:39;28.70;99.90
2825;DHT22;1420;51.324;12.344;2022-07-21T17:12:07;28.60;99.90
2825;DHT22;1420;51.324;12.344;2022-07-21T17:14:34;28.60;99.90
2825;DHT22;1420;51.324;12.344;2022-07-21T17:17:02;28.60;99.90
2825;DHT22;1420;51.324;12.344;2022-07-21T17:19:30;28.50;99.90
2825;DHT22;1420;51.324;12.344;2022-07-21T17:21:58;28.50;99.90
2825;DHT22;1420;51.324;12.344;2022-07-21T17:24:25;28.40;99.90
2825;DHT22;1420;51.324;12.344;2022-07-21T17:26:53;28.50;99.90
2825;DHT22;1420;51.324;12.344;2022-07-21T17:29:21;28.30;99.90
2825;DHT22;1420;51.324;12.344;2022-07-21T17:31:49;28.40;99.90
2825;DHT22;1420;51.324;12.344;2022-07-21T17:34:17;28.40;99.90
2825;DHT22;1420;51.324;12.344;2022-07-21T17:36:44;28.50;99.90
2825;DHT22;1420;51.324;12.344;2022-07-21T17:39:12;28.50;99.90
2825;DHT22;1420;51.324;12.344;2022-07-21T17:41:40;28.30;99.90
2825;DHT22;1420;51.324;12.344;2022-07-21T17:44:08;28.30;99.90
2825;DHT22;1420;51.324;12.344;2022-07-21T17:46:35;28.30;99.90
2825;DHT22;1420;51.324;12.344;2022-07-21T17:49:02;28.20;99.90
2825;DHT22;1420;51.324;12.344;2022-07-21T17:51:29;28.30;99.90
2825;DHT22;1420;51.324;12.344;2022-07-21T17:53:56;28.20;99.90
2825;DHT22;1420;51.324;12.344;2022-07-21T17:56:24;28.10;99.90
2825;DHT22;1420;51.324;12.344;2022-07-21T17:58:51;28.10;99.90
2825;DHT22;1420;51.324;12.344;2022-07-21T18:01:20;28.00;99.90
2825;DHT22;1420;51.324;12.344;2022-07-21T18:03:45;27.80;99.80
2825;DHT22;1420;51.324;12.344;2022-07-21T18:06:13;27.80;99.90
2825;DHT22;1420;51.324;12.344;2022-07-21T18:08:40;27.80;99.90
2825;DHT22;1420;51.324;12.344;2022-07-21T18:11:08;27.50;99.40
2825;DHT22;1420;51.324;12.344;2022-07-21T18:13:35;27.50;99.20
2825;DHT22;1420;51.324;12.344;2022-07-21T18:16:02;27.40;99.90
2825;DHT22;1420;51.324;12.344;2022-07-21T18:18:30;27.50;98.50
2825;DHT22;1420;51.324;12.344;2022-07-21T18:20:57;27.30;97.00
2825;DHT22;1420;51.324;12.344;2022-07-21T18:23:24;27.30;97.00
2825;DHT22;1420;51.324;12.344;2022-07-21T18:25:51;27.20;96.90
2825;DHT22;1420;51.324;12.344;2022-07-21T18:28:18;27.00;95.90
2825;DHT22;1420;51.324;12.344;2022-07-21T18:30:47;26.90;95.50
2825;DHT22;1420;51.324;12.344;2022-07-21T18:33:14;27.00;95.80
2825;DHT22;1420;51.324;12.344;2022-07-21T18:35:42;27.00;95.60
2825;DHT22;1420;51.324;12.344;2022-07-21T18:38:10;26.90;95.40
2825;DHT22;1420;51.324;12.344;2022-07-21T18:40:38;26.90;99.90
2825;DHT22;1420;51.324;12.344;2022-07-21T18:43:06;26.80;94.50
2825;DHT22;1420;51.324;12.344;2022-07-21T18:45:34;26.70;94.00
2825;DHT22;1420;51.324;12.344;2022-07-21T18:48:02;26.60;93.30
2825;DHT22;1420;51.324;12.344;2022-07-21T18:50:30;26.50;92.70
2825;DHT22;1420;51.324;12.344;2022-07-21T18:52:57;26.40;92.70
2825;DHT22;1420;51.324;12.344;2022-07-21T18:55:25;26.40;93.00
2825;DHT22;1420;51.324;12.344;2022-07-21T18:57:53;26.30;92.70
2825;DHT22;1420;51.324;12.344;2022-07-21T19:00:21;26.30;92.00
2825;DHT22;1420;51.324;12.344;2022-07-21T19:02:49;26.30;91.90
2825;DHT22;1420;51.324;12.344;2022-07-21T19:05:17;26.20;91.40
2825;DHT22;1420;51.324;12.344;2022-07-21T19:07:45;26.20;91.80
2825;DHT22;1420;51.324;12.344;2022-07-21T19:10:15;26.00;90.60
2825;DHT22;1420;51.324;12.344;2022-07-21T19:12:42;26.00;91.00
2825;DHT22;1420;51.324;12.344;2022-07-21T19:15:10;25.90;90.10
2825;DHT22;1420;51.324;12.344;2022-07-21T19:17:38;25.80;90.30
2825;DHT22;1420;51.324;12.344;2022-07-21T19:20:07;25.80;90.10
2825;DHT22;1420;51.324;12.344;2022-07-21T19:22:35;25.70;88.80
2825;DHT22;1420;51.324;12.344;2022-07-21T19:25:02;25.70;88.40
2825;DHT22;1420;51.324;12.344;2022-07-21T19:27:29;25.80;88.90
2825;DHT22;1420;51.324;12.344;2022-07-21T19:29:57;25.70;87.30
2825;DHT22;1420;51.324;12.344;2022-07-21T19:32:24;25.70;88.00
2825;DHT22;1420;51.324;12.344;2022-07-21T19:34:51;25.80;88.30
2825;DHT22;1420;51.324;12.344;2022-07-21T19:37:18;25.60;86.20
2825;DHT22;1420;51.324;12.344;2022-07-21T19:39:45;25.40;85.20
2825;DHT22;1420;51.324;12.344;2022-07-21T19:42:13;25.30;84.10
2825;DHT22;1420;51.324;12.344;2022-07-21T19:44:40;25.20;83.80
2825;DHT22;1420;51.324;12.344;2022-07-21T19:47:07;25.20;83.30
2825;DHT22;1420;51.324;12.344;2022-07-21T19:49:35;25.10;83.90
2825;DHT22;1420;51.324;12.344;2022-07-21T19:52:03;25.10;82.00
2825;DHT22;1420;51.324;12.344;2022-07-21T19:54:30;25.00;81.50
2825;DHT22;1420;51.324;12.344;2022-07-21T19:56:58;25.00;82.30
2825;DHT22;1420;51.324;12.344;2022-07-21T19:59:25;25.00;80.90
2825;DHT22;1420;51.324;12.344;2022-07-21T20:01:52;24.90;80.70
2825;DHT22;1420;51.324;12.344;2022-07-21T20:04:19;24.90;79.60
2825;DHT22;1420;51.324;12.344;2022-07-21T20:06:46;24.80;79.80
2825;DHT22;1420;51.324;12.344;2022-07-21T20:09:14;24.70;79.60
2825;DHT22;1420;51.324;12.344;2022-07-21T20:11:41;24.60;77.60
2825;DHT22;1420;51.324;12.344;2022-07-21T20:14:08;24.60;78.00
2825;DHT22;1420;51.324;12.344;2022-07-21T20:16:35;24.70;78.30
2825;DHT22;1420;51.324;12.344;2022-07-21T20:19:03;24.60;77.90
2825;DHT22;1420;51.324;12.344;2022-07-21T20:21:30;24.40;76.20
2825;DHT22;1420;51.324;12.344;2022-07-21T20:23:58;24.40;76.60
2825;DHT22;1420;51.324;12.344;2022-07-21T20:26:26;24.40;76.00
2825;DHT22;1420;51.324;12.344;2022-07-21T20:28:54;24.20;75.00
2825;DHT22;1420;51.324;12.344;2022-07-21T20:31:22;24.10;74.60
2825;DHT22;1420;51.324;12.344;2022-07-21T20:33:50;24.00;73.80
2825;DHT22;1420;51.324;12.344;2022-07-21T20:36:18;24.00;72.60
2825;DHT22;1420;51.324;12.344;2022-07-21T20:38:46;24.00;73.30
2825;DHT22;1420;51.324;12.344;2022-07-21T20:41:14;23.90;72.70
2825;DHT22;1420;51.324;12.344;2022-07-21T20:43:42;24.00;73.40
2825;DHT22;1420;51.324;12.344;2022-07-21T20:46:10;24.00;73.30
2825;DHT22;1420;51.324;12.344;2022-07-21T20:48:38;24.00;73.90
2825;DHT22;1420;51.324;12.344;2022-07-21T20:51:06;24.10;74.80
2825;DHT22;1420;51.324;12.344;2022-07-21T20:53:34;24.10;76.10
2825;DHT22;1420;51.324;12.344;2022-07-21T20:56:02;24.10;74.60
2825;DHT22;1420;51.324;12.344;2022-07-21T20:58:30;24.10;74.50
2825;DHT22;1420;51.324;12.344;2022-07-21T21:00:58;24.10;76.70
2825;DHT22;1420;51.324;12.344;2022-07-21T21:03:26;24.00;74.50
2825;DHT22;1420;51.324;12.344;2022-07-21T21:05:54;24.00;74.30
2825;DHT22;1420;51.324;12.344;2022-07-21T21:08:22;23.90;74.10
2825;DHT22;1420;51.324;12.344;2022-07-21T21:10:50;23.80;73.50
2825;DHT22;1420;51.324;12.344;2022-07-21T21:13:18;23.70;90.30
2825;DHT22;1420;51.324;12.344;2022-07-21T21:15:45;23.70;72.00
2825;DHT22;1420;51.324;12.344;2022-07-21T21:18:12;23.70;73.40
2825;DHT22;1420;51.324;12.344;2022-07-21T21:20:39;23.70;72.60
2825;DHT22;1420;51.324;12.344;2022-07-21T21:23:07;23.90;74.60
2825;DHT22;1420;51.324;12.344;2022-07-21T21:25:34;24.00;74.80
2825;DHT22;1420;51.324;12.344;2022-07-21T21:28:01;24.00;74.50
2825;DHT22;1420;51.324;12.344;2022-07-21T21:30:28;24.10;75.00
2825;DHT22;1420;51.324;12.344;2022-07-21T21:32:56;24.10;75.70
2825;DHT22;1420;51.324;12.344;2022-07-21T21:35:23;24.30;76.80
2825;DHT22;1420;51.324;12.344;2022-07-21T21:37:50;24.50;78.10
2825;DHT22;1420;51.324;12.344;2022-07-21T21:40:17;24.40;78.10
2825;DHT22;1420;51.324;12.344;2022-07-21T21:42:45;24.30;92.30
2825;DHT22;1420;51.324;12.344;2022-07-21T21:45:13;24.10;75.40
2825;DHT22;1420;51.324;12.344;2022-07-21T21:47:41;24.10;74.80
2825;DHT22;1420;51.324;12.344;2022-07-21T21:50:09;24.00;75.20
2825;DHT22;1420;51.324;12.344;2022-07-21T21:52:36;23.90;74.50
2825;DHT22;1420;51.324;12.344;2022-07-21T21:55:04;23.90;75.10
2825;DHT22;1420;51.324;12.344;2022-07-21T21:57:31;24.00;76.10
2825;DHT22;1420;51.324;12.344;2022-07-21T21:59:58;23.90;74.30
2825;DHT22;1420;51.324;12.344;2022-07-21T22:02:26;23.80;74.00
2825;DHT22;1420;51.324;12.344;2022-07-21T22:04:53;23.80;75.20
2825;DHT22;1420;51.324;12.344;2022-07-21T22:07:20;23.70;73.20
2825;DHT22;1420;51.324;12.344;2022-07-21T22:09:47;23.70;73.70
2825;DHT22;1420;51.324;12.344;2022-07-21T22:12:14;23.50;74.00
2825;DHT22;1420;51.324;12.344;2022-07-21T22:14:42;23.50;64.00
2825;DHT22;1420;51.324;12.344;2022-07-21T22:17:10;23.50;74.50
2825;DHT22;1420;51.324;12.344;2022-07-21T22:19:38;23.40;76.50
2825;DHT22;1420;51.324;12.344;2022-07-21T22:22:05;23.30;76.00
2825;DHT22;1420;51.324;12.344;2022-07-21T22:24:32;23.40;81.90
2825;DHT22;1420;51.324;12.344;2022-07-21T22:27:00;23.50;88.40
2825;DHT22;1420;51.324;12.344;2022-07-21T22:29:28;23.30;87.80
2825;DHT22;1420;51.324;12.344;2022-07-21T22:31:56;23.30;87.30
2825;DHT22;1420;51.324;12.344;2022-07-21T22:34:24;23.40;88.10
2825;DHT22;1420;51.324;12.344;2022-07-21T22:36:52;23.40;88.00
2825;DHT22;1420;51.324;12.344;2022-07-21T22:39:20;23.40;89.40
2825;DHT22;1420;51.324;12.344;2022-07-21T22:41:48;23.20;88.60
2825;DHT22;1420;51.324;12.344;2022-07-21T22:44:16;23.30;89.00
2825;DHT22;1420;51.324;12.344;2022-07-21T22:46:44;23.10;89.70
2825;DHT22;1420;51.324;12.344;2022-07-21T22:49:11;23.00;88.40
2825;DHT22;1420;51.324;12.344;2022-07-21T22:51:38;23.10;88.50
2825;DHT22;1420;51.324;12.344;2022-07-21T22:54:05;23.10;88.40
2825;DHT22;1420;51.324;12.344;2022-07-21T22:56:32;23.10;88.40
2825;DHT22;1420;51.324;12.344;2022-07-21T22:59:00;23.10;87.30
2825;DHT22;1420;51.324;12.344;2022-07-21T23:01:27;23.20;87.90
2825;DHT22;1420;51.324;12.344;2022-07-21T23:03:54;23.10;87.30
2825;DHT22;1420;51.324;12.344;2022-07-21T23:06:21;23.00;86.50
2825;DHT22;1420;51.324;12.344;2022-07-21T23:08:49;22.90;92.30
2825;DHT22;1420;51.324;12.344;2022-07-21T23:11:17;22.80;88.20
2825;DHT22;1420;51.324;12.344;2022-07-21T23:13:44;22.70;87.50
2825;DHT22;1420;51.324;12.344;2022-07-21T23:16:12;22.80;88.00
2825;DHT22;1420;51.324;12.344;2022-07-21T23:18:40;22.80;89.40
2825;DHT22;1420;51.324;12.344;2022-07-21T23:21:08;22.80;88.50
2825;DHT22;1420;51.324;12.344;2022-07-21T23:23:36;22.80;88.40
2825;DHT22;1420;51.324;12.344;2022-07-21T23:26:05;22.90;89.40
2825;DHT22;1420;51.324;12.344;2022-07-21T23:28:32;22.90;89.40
2825;DHT22;1420;51.324;12.344;2022-07-21T23:31:00;22.80;88.60
2825;DHT22;1420;51.324;12.344;2022-07-21T23:33:27;22.80;89.10
2825;DHT22;1420;51.324;12.344;2022-07-21T23:35:55;23.00;90.10
2825;DHT22;1420;51.324;12.344;2022-07-21T23:38:22;23.00;90.20
2825;DHT22;1420;51.324;12.344;2022-07-21T23:40:49;22.90;90.10
2825;DHT22;1420;51.324;12.344;2022-07-21T23:43:16;22.80;90.00
2825;DHT22;1420;51.324;12.344;2022-07-21T23:45:43;22.60;89.70
2825;DHT22;1420;51.324;12.344;2022-07-21T23:48:11;22.50;89.50
2825;DHT22;1420;51.324;12.344;2022-07-21T23:50:38;22.40;89.10
2825;DHT22;1420;51.324;12.344;2022-07-21T23:53:05;22.30;88.40
2825;DHT22;1420;51.324;12.344;2022-07-21T23:55:32;22.30;74.00
2825;DHT22;1420;51.324;12.344;2022-07-21T23:58:00;22.30;91.00
